Time;durP1;ratioP1;P1;durP2;ratioP2;P2;SDS_P1;SDS_P2;PMS_P1;PMS_P2;Temp;Humidity;BMP_temperature;BMP_pressure;BME280_temperature;BME280_humidity;BME280_pressure;Samples;Min_cycle;Max_cycle;Signal;HPM_P1;HPM_P2
2023/03/02 00:01:35;;;;;;;0.77;0.77;;;;;;;-5.60;87.37;98467.47;4776738;30;20104;-84
2023/03/02 00:04:04;;;;;;;0.80;0.80;;;;;;;-5.55;87.55;98473.09;4760787;30;20067;-84
2023/03/02 00:06:33;;;;;;;0.90;0.90;;;;;;;-5.44;87.57;98480.72;4776770;30;20062;-83
2023/03/02 00:09:01;;;;;;;0.85;0.85;;;;;;;-5.41;87.70;98474.34;4753306;30;20087;-83
2023/03/02 00:11:30;;;;;;;0.70;0.70;;;;;;;-5.48;87.59;98467.03;4769736;30;20083;-83
2023/03/02 00:13:57;;;;;;;0.80;0.80;;;;;;;-5.41;87.72;98469.06;4769520;30;20094;-84
2023/03/02 00:16:24;;;;;;;0.73;0.73;;;;;;;-5.36;87.72;98480.78;4785943;30;20743;-82
2023/03/02 00:18:52;;;;;;;0.82;0.82;;;;;;;-5.33;87.63;98484.88;4785481;30;20055;-84
2023/03/02 00:21:19;;;;;;;0.80;0.80;;;;;;;-5.46;87.71;98470.34;4785713;30;20477;-85
2023/03/02 00:23:46;;;;;;;0.65;0.65;;;;;;;-5.34;87.68;98499.00;4785485;30;20372;-84
2023/03/02 00:26:13;;;;;;;0.80;0.80;;;;;;;-5.39;87.41;98486.34;4785821;30;20066;-85
2023/03/02 00:28:40;;;;;;;0.60;0.60;;;;;;;-5.45;87.66;98460.66;4785607;30;20142;-84
2023/03/02 00:31:07;;;;;;;0.70;0.70;;;;;;;-5.33;87.54;98474.38;4785728;30;20051;-85
2023/03/02 00:33:35;;;;;;;0.70;0.70;;;;;;;-5.35;87.79;98465.81;4785663;30;20063;-85
2023/03/02 00:36:02;;;;;;;0.70;0.70;;;;;;;-5.27;87.72;98485.06;4785423;30;20141;-84
2023/03/02 00:38:30;;;;;;;0.80;0.80;;;;;;;-5.25;87.61;98490.19;4786146;29;20094;-85
2023/03/02 00:40:58;;;;;;;0.77;0.77;;;;;;;-5.35;87.47;98495.56;4785928;30;20527;-85
2023/03/02 00:43:26;;;;;;;0.80;0.80;;;;;;;-5.23;87.29;98506.66;4769847;30;20059;-85
2023/03/02 00:45:54;;;;;;;0.55;0.55;;;;;;;-5.24;87.09;98518.97;4784456;30;20507;-84
2023/03/02 00:48:21;;;;;;;0.80;0.80;;;;;;;-5.22;87.13;98518.81;4785752;30;20408;-85
2023/03/02 00:50:48;;;;;;;0.88;0.88;;;;;;;-5.20;87.10;98523.94;4785325;30;20055;-85
2023/03/02 00:53:16;;;;;;;0.70;0.70;;;;;;;-5.22;87.00;98526.69;4785537;30;20059;-84
2023/03/02 00:55:52;;;;;;;0.70;0.70;;;;;;;-5.20;86.71;98531.81;4785332;30;20154;-84
2023/03/02 00:58:22;;;;;;;0.80;0.80;;;;;;;-5.20;86.69;98534.44;4785436;30;20346;-85
2023/03/02 01:00:49;;;;;;;0.75;0.75;;;;;;;-5.24;86.45;98537.41;4754633;30;20081;-84
2023/03/02 01:03:17;;;;;;;0.68;0.68;;;;;;;-5.21;86.60;98538.91;4769693;30;20074;-86
2023/03/02 01:05:44;;;;;;;0.55;0.55;;;;;;;-5.24;86.34;98536.59;4792042;30;20051;-83
2023/03/02 01:08:11;;;;;;;0.75;0.75;;;;;;;-5.28;86.20;98529.97;4787366;30;20059;-84
2023/03/02 01:10:39;;;;;;;0.85;0.85;;;;;;;-5.30;86.19;98532.75;4769682;30;20058;-84
2023/03/02 01:13:06;;;;;;;0.70;0.70;;;;;;;-5.27;86.00;98531.59;4769584;30;20145;-84
2023/03/02 01:15:35;;;;;;;0.68;0.68;;;;;;;-5.34;85.81;98534.06;4769506;30;20055;-84
2023/03/02 01:18:02;;;;;;;0.90;0.90;;;;;;;-5.56;86.19;98526.66;4785259;30;20078;-84
2023/03/02 01:20:30;;;;;;;0.80;0.80;;;;;;;-5.65;86.06;98536.28;4788203;29;20051;-85
2023/03/02 01:22:57;;;;;;;0.82;0.82;;;;;;;-5.67;86.04;98535.63;4789028;30;20077;-84
2023/03/02 01:25:24;;;;;;;0.70;0.70;;;;;;;-5.76;85.60;98526.84;4772608;30;20059;-84
2023/03/02 01:27:51;;;;;;;0.80;0.80;;;;;;;-5.92;85.25;98538.03;4788722;30;20059;-84
2023/03/02 01:30:19;;;;;;;0.77;0.77;;;;;;;-6.07;85.60;98547.47;4772736;30;20431;-85
2023/03/02 01:32:46;;;;;;;0.70;0.70;;;;;;;-6.14;85.62;98539.34;4788057;30;20539;-85
2023/03/02 01:35:13;;;;;;;0.60;0.60;;;;;;;-6.04;85.57;98554.22;4772895;30;20089;-85
2023/03/02 01:37:40;;;;;;;0.98;0.98;;;;;;;-5.89;84.96;98543.00;4788765;30;20075;-85
2023/03/02 01:40:09;;;;;;;0.70;0.70;;;;;;;-5.78;84.67;98546.38;4772931;30;20055;-85
2023/03/02 01:42:45;;;;;;;0.93;0.93;;;;;;;-5.68;84.17;98540.03;4772873;30;20520;-85
2023/03/02 01:45:50;;;;;;;0.80;0.80;;;;;;;-5.75;83.59;98538.16;4772900;30;20055;-84
2023/03/02 01:48:43;;;;;;;0.60;0.60;;;;;;;-6.04;83.26;98522.69;4769366;30;20055;-85
2023/03/02 01:51:14;;;;;;;;;;;;;;;-6.17;83.80;98505.50;4754944;30;20052;-84
2023/03/02 01:53:45;;;;;;;0.80;0.80;;;;;;;-6.23;83.77;98492.94;4740309;30;19941;-84
2023/03/02 01:56:15;;;;;;;0.80;0.80;;;;;;;-6.24;84.00;98519.38;4770533;30;20117;-85
2023/03/02 01:58:43;;;;;;;0.60;0.60;;;;;;;-6.30;84.09;98526.06;4754285;30;20079;-85
2023/03/02 02:01:16;;;;;;;0.63;0.63;;;;;;;-6.26;84.56;98539.72;4748304;30;20053;-85
2023/03/02 02:03:49;;;;;;;0.75;0.75;;;;;;;-6.05;84.34;98552.56;4788279;30;20146;-85
2023/03/02 02:06:31;;;;;;;0.70;0.70;;;;;;;-5.91;83.68;98555.44;4777233;30;20108;-84
2023/03/02 02:09:00;;;;;;;0.90;0.90;;;;;;;-5.88;83.65;98554.31;4772142;30;20063;-84
2023/03/02 02:11:27;;;;;;;0.90;0.90;;;;;;;-5.88;83.36;98564.84;4757356;30;20055;-84
2023/03/02 02:13:57;;;;;;;0.50;0.50;;;;;;;-5.88;83.51;98568.28;4787995;30;20809;-83
2023/03/02 02:16:25;;;;;;;0.77;0.77;;;;;;;-5.91;83.24;98560.72;4788034;30;20111;-84
2023/03/02 02:18:53;;;;;;;0.60;0.60;;;;;;;-6.01;82.92;98540.78;4781427;30;20562;-85
2023/03/02 02:21:21;;;;;;;0.88;0.88;;;;;;;-6.17;82.76;98555.41;4754076;30;20463;-85
2023/03/02 02:24:09;;;;;;;1.00;1.00;;;;;;;-6.20;83.20;98560.97;4754184;30;20052;-85
2023/03/02 02:26:48;;;;;;;0.70;0.70;;;;;;;-6.23;83.33;98561.25;4769184;30;20083;-85
2023/03/02 02:29:21;;;;;;;0.90;0.90;;;;;;;-6.15;83.48;98573.66;4754540;30;20111;-83
2023/03/02 02:31:56;;;;;;;0.70;0.70;;;;;;;-6.07;82.96;98576.38;4767336;30;20142;-85
2023/03/02 02:34:33;;;;;;;0.60;0.60;;;;;;;-6.02;82.70;98573.28;4786235;30;20071;-84
2023/03/02 02:37:11;;;;;;;0.63;0.63;;;;;;;-6.07;82.53;98544.03;4771360;30;20055;-85
2023/03/02 02:39:42;;;;;;;0.68;0.68;;;;;;;-6.18;82.76;98561.66;4756989;30;20058;-85
2023/03/02 02:42:17;;;;;;;0.70;0.70;;;;;;;-6.16;82.84;98546.53;4765393;30;20562;-88
2023/03/02 02:44:44;;;;;;;0.88;0.88;;;;;;;-6.13;82.55;98553.31;4749732;30;20139;-84
2023/03/02 02:47:17;;;;;;;0.90;0.90;;;;;;;-6.11;82.48;98554.81;4786377;30;20138;-86
2023/03/02 02:49:45;;;;;;;0.98;0.98;;;;;;;-6.09;82.35;98564.34;4770938;30;20077;-84
2023/03/02 02:52:17;;;;;;;0.70;0.70;;;;;;;-6.05;82.08;98576.19;4772295;30;20072;-84
2023/03/02 02:54:48;;;;;;;0.70;0.70;;;;;;;-6.02;81.84;98563.59;4772962;30;20511;-83
2023/03/02 02:57:16;;;;;;;0.70;0.70;;;;;;;-5.96;81.51;98575.31;4757405;30;20056;-83
2023/03/02 02:59:47;;;;;;;0.82;0.82;;;;;;;-5.93;81.19;98578.44;4756450;30;20405;-84
2023/03/02 03:02:18;;;;;;;0.80;0.80;;;;;;;-5.90;80.97;98582.56;4771620;30;20142;-84
2023/03/02 03:04:45;;;;;;;0.82;0.82;;;;;;;-5.89;80.72;98584.22;4787435;30;20063;-84
2023/03/02 03:07:18;;;;;;;0.88;0.88;;;;;;;-5.92;80.11;98587.97;4771165;30;20564;-84
2023/03/02 03:10:10;;;;;;;0.88;0.88;;;;;;;-5.87;79.91;98587.53;4764602;30;20059;-86
2023/03/02 03:12:38;;;;;;;0.80;0.80;;;;;;;-5.90;79.60;98598.31;4776000;30;20565;-85
2023/03/02 03:15:06;;;;;;;0.77;0.77;;;;;;;-5.91;79.74;98602.75;4752977;30;20478;-85
2023/03/02 03:17:34;;;;;;;0.60;0.60;;;;;;;-5.94;79.49;98604.91;4759514;30;20108;-86
2023/03/02 03:20:07;;;;;;;1.00;1.00;;;;;;;-6.03;79.73;98608.41;4785035;30;20095;-86
2023/03/02 03:22:40;;;;;;;0.70;0.70;;;;;;;-6.11;80.16;98607.34;4770903;30;20152;-86
2023/03/02 03:25:14;;;;;;;0.88;0.88;;;;;;;-6.20;80.62;98603.00;4770927;30;20093;-86
2023/03/02 03:27:44;;;;;;;0.85;0.85;;;;;;;-6.26;81.34;98614.06;4766160;30;20056;-87
2023/03/02 03:30:15;;;;;;;0.90;0.90;;;;;;;-6.28;81.74;98609.94;4762719;30;20078;-86
2023/03/02 03:32:43;;;;;;;0.80;0.80;;;;;;;-6.43;81.77;98599.09;4726851;30;20059;-88
2023/03/02 03:35:13;;;;;;;0.80;0.80;;;;;;;-6.39;82.48;98595.22;4755775;30;20113;-88
2023/03/02 03:37:41;;;;;;;0.82;0.82;;;;;;;-6.40;82.35;98594.41;4769222;30;20062;-87
2023/03/02 03:40:09;;;;;;;0.80;0.80;;;;;;;-6.38;82.54;98587.22;4772872;30;20055;-85
2023/03/02 03:42:39;;;;;;;0.93;0.93;;;;;;;-6.37;82.60;98595.91;4773394;30;20043;-86
2023/03/02 03:45:07;;;;;;;0.80;0.80;;;;;;;-6.35;82.80;98605.28;4784373;30;20065;-86
2023/03/02 03:47:36;;;;;;;0.80;0.80;;;;;;;-6.35;82.83;98596.59;4761368;30;20058;-87
2023/03/02 03:50:05;;;;;;;0.95;0.95;;;;;;;-6.34;82.55;98596.44;4762993;30;20511;-90
2023/03/02 03:52:33;;;;;;;0.73;0.73;;;;;;;-6.40;82.87;98585.72;4767005;30;20070;-84
2023/03/02 03:55:11;;;;;;;1.00;1.00;;;;;;;-6.54;82.99;98581.75;4438319;30;10000389;-86
2023/03/02 03:57:40;;;;;;;1.00;1.00;;;;;;;-6.64;83.13;98581.78;4749531;30;20189;-87
2023/03/02 04:00:10;;;;;;;0.70;0.70;;;;;;;-6.63;83.40;98585.28;4770295;30;20061;-85
2023/03/02 04:02:40;;;;;;;0.82;0.82;;;;;;;-6.60;83.48;98577.91;4786345;30;20133;-86
2023/03/02 04:05:10;;;;;;;0.77;0.77;;;;;;;-6.54;83.21;98592.25;4770191;30;20081;-85
2023/03/02 04:07:38;;;;;;;0.85;0.85;;;;;;;-6.48;82.99;98594.31;4770098;30;20590;-86
2023/03/02 04:10:07;;;;;;;0.80;0.80;;;;;;;-6.42;82.98;98603.41;4785959;30;20058;-86
2023/03/02 04:12:39;;;;;;;0.70;0.70;;;;;;;-6.40;82.69;98597.03;4770550;30;20055;-85
2023/03/02 04:15:11;;;;;;;0.90;0.90;;;;;;;-6.37;82.29;98601.97;4769665;30;20116;-86
2023/03/02 04:17:38;;;;;;;0.82;0.82;;;;;;;-6.38;82.22;98596.88;4770244;30;20405;-86
2023/03/02 04:20:09;;;;;;;0.90;0.90;;;;;;;-6.36;82.33;98597.53;4766460;30;20060;-85
2023/03/02 04:22:36;;;;;;;0.80;0.80;;;;;;;-6.35;82.30;98597.41;4753270;29;20619;-86
2023/03/02 04:25:04;;;;;;;0.95;0.95;;;;;;;-6.34;82.23;98599.06;4769659;30;20066;-86
2023/03/02 04:27:31;;;;;;;0.73;0.73;;;;;;;-6.29;82.52;98605.69;4766222;30;20138;-84
2023/03/02 04:29:58;;;;;;;0.75;0.75;;;;;;;-6.30;82.16;98590.88;4763414;30;20079;-85
2023/03/02 04:32:26;;;;;;;0.90;0.90;;;;;;;-6.29;81.95;98597.81;4768858;30;20070;-86
2023/03/02 04:34:54;;;;;;;0.70;0.70;;;;;;;-6.28;82.19;98605.50;4749133;30;20062;-85
2023/03/02 04:37:22;;;;;;;0.80;0.80;;;;;;;-6.22;82.13;98607.56;4765875;30;20113;-87
2023/03/02 04:39:51;;;;;;;0.80;0.80;;;;;;;-6.19;82.05;98616.97;4766882;30;20101;-86
2023/03/02 04:42:19;;;;;;;0.90;0.90;;;;;;;-6.21;82.08;98622.34;4782555;30;20063;-86
2023/03/02 04:44:46;;;;;;;0.80;0.80;;;;;;;-6.17;82.12;98625.53;4779793;30;20059;-85
2023/03/02 04:47:13;;;;;;;0.90;0.90;;;;;;;-6.17;82.03;98625.53;4780264;30;20055;-85
2023/03/02 04:49:40;;;;;;;0.82;0.82;;;;;;;-6.18;82.29;98637.84;4777039;30;20066;-83
2023/03/02 04:52:08;;;;;;;0.68;0.68;;;;;;;-6.18;82.27;98643.09;4771025;30;20062;-83
2023/03/02 04:54:35;;;;;;;0.70;0.70;;;;;;;-6.19;82.00;98635.34;4783807;29;20074;-83
2023/03/02 04:57:02;;;;;;;0.70;0.70;;;;;;;-6.20;81.59;98639.78;4780015;30;20531;-84
2023/03/02 04:59:29;;;;;;;1.08;1.08;;;;;;;-6.14;81.61;98654.94;4773479;30;20074;-85
2023/03/02 05:01:57;;;;;;;0.63;0.63;;;;;;;-6.09;81.72;98658.94;4788785;30;20055;-85
2023/03/02 05:04:25;;;;;;;0.80;0.80;;;;;;;-6.09;81.52;98661.56;4765887;30;20142;-85
2023/03/02 05:06:54;;;;;;;0.80;0.80;;;;;;;-6.08;81.34;98661.41;4763737;30;20056;-84
2023/03/02 05:09:26;;;;;;;0.63;0.63;;;;;;;-6.02;81.45;98666.09;4781193;30;20060;-82
2023/03/02 05:11:54;;;;;;;0.85;0.85;;;;;;;-5.97;81.46;98670.91;4770393;30;20063;-84
2023/03/02 05:14:21;;;;;;;0.98;0.98;;;;;;;-5.97;80.92;98674.34;4769744;30;20055;-83
2023/03/02 05:16:49;;;;;;;0.80;0.80;;;;;;;-5.87;80.96;98682.16;4762994;30;20535;-83
2023/03/02 05:19:16;;;;;;;0.90;0.90;;;;;;;-5.85;80.61;98687.25;4779157;29;20142;-82
2023/03/02 05:21:44;;;;;;;0.70;0.70;;;;;;;-5.93;79.83;98690.59;4788243;30;20796;-86
2023/03/02 05:24:12;;;;;;;0.70;0.70;;;;;;;-5.97;80.03;98691.94;4771940;30;20055;-82
2023/03/02 05:26:39;;;;;;;0.70;0.70;;;;;;;-5.93;80.13;98687.97;4777104;30;20079;-82
2023/03/02 05:29:06;;;;;;;0.90;0.90;;;;;;;-5.88;80.14;98697.06;4776235;30;20059;-82
2023/03/02 05:31:42;;;;;;;0.82;0.82;;;;;;;-5.79;79.68;98698.00;4650448;29;10001266;-84
2023/03/02 05:34:12;;;;;;;0.90;0.90;;;;;;;-5.76;79.13;98697.69;4784582;30;20326;-84
2023/03/02 05:36:39;;;;;;;0.70;0.70;;;;;;;-5.78;79.19;98686.50;4777213;30;20055;-83
2023/03/02 05:39:07;;;;;;;0.98;0.98;;;;;;;-5.97;78.90;98702.44;4754963;30;20711;-83
2023/03/02 05:41:35;;;;;;;0.90;0.90;;;;;;;-6.14;79.24;98704.03;4774714;30;20079;-85
2023/03/02 05:44:03;;;;;;;0.88;0.88;;;;;;;-6.24;79.76;98711.13;4786843;30;20070;-87
2023/03/02 05:46:30;;;;;;;0.98;0.98;;;;;;;-6.27;79.62;98707.00;4784595;30;20082;-86
2023/03/02 05:48:58;;;;;;;0.80;0.80;;;;;;;-6.11;79.95;98712.44;4783457;30;20081;-86
2023/03/02 05:51:26;;;;;;;0.70;0.70;;;;;;;-5.63;79.39;98709.66;4786896;30;20135;-84
2023/03/02 05:53:53;;;;;;;0.98;0.98;;;;;;;-5.32;78.62;98696.97;4787812;30;20067;-85
2023/03/02 05:56:21;;;;;;;0.90;0.90;;;;;;;-5.29;77.47;98704.56;4787933;30;20052;-85
2023/03/02 05:58:48;;;;;;;0.80;0.80;;;;;;;-5.23;77.10;98709.22;4787481;30;20066;-86
2023/03/02 06:01:15;;;;;;;0.80;0.80;;;;;;;-5.16;76.52;98712.09;4788015;30;20431;-86
2023/03/02 06:03:42;;;;;;;0.80;0.80;;;;;;;-5.20;76.21;98716.00;4787887;30;20059;-85
2023/03/02 06:06:12;;;;;;;0.90;0.90;;;;;;;-5.27;76.30;98713.13;4787077;29;20158;-84
2023/03/02 06:08:41;;;;;;;0.80;0.80;;;;;;;-5.20;76.30;98711.56;4787842;30;20082;-84
2023/03/02 06:11:09;;;;;;;0.85;0.85;;;;;;;-5.06;76.22;98718.09;4771444;30;20047;-86
2023/03/02 06:13:36;;;;;;;0.90;0.90;;;;;;;-4.84;75.72;98720.22;4788368;30;20063;-85
2023/03/02 06:16:04;;;;;;;0.90;0.90;;;;;;;-4.76;74.71;98724.75;4788242;29;20104;-85
2023/03/02 06:18:32;;;;;;;0.90;0.90;;;;;;;-4.78;73.84;98726.72;4783592;30;20056;-84
2023/03/02 06:21:00;;;;;;;0.85;0.85;;;;;;;-4.89;73.95;98729.56;4767989;30;20070;-84
2023/03/02 06:23:27;;;;;;;0.93;0.93;;;;;;;-4.85;74.55;98726.47;4753376;30;20109;-84
2023/03/02 06:25:54;;;;;;;0.90;0.90;;;;;;;-4.72;74.26;98725.25;4769304;30;20052;-85
2023/03/02 06:28:21;;;;;;;0.80;0.80;;;;;;;-4.48;73.93;98722.78;4769616;30;20067;-83
2023/03/02 06:30:48;;;;;;;0.85;0.85;;;;;;;-4.32;73.02;98711.50;4770156;30;20106;-85
2023/03/02 06:33:17;;;;;;;0.65;0.65;;;;;;;-4.23;72.51;98712.38;4772965;30;20501;-85
2023/03/02 06:35:44;;;;;;;0.90;0.90;;;;;;;-4.31;72.22;98707.06;4773533;30;20427;-86
2023/03/02 06:38:12;;;;;;;0.80;0.80;;;;;;;-4.37;72.46;98717.25;4787399;30;20055;-86
2023/03/02 06:40:39;;;;;;;0.63;0.63;;;;;;;-4.47;72.72;98718.34;4787531;30;20145;-84
2023/03/02 06:43:06;;;;;;;1.00;1.00;;;;;;;-4.51;72.60;98704.66;4778663;30;20065;-84
2023/03/02 06:45:33;;;;;;;0.70;0.70;;;;;;;-4.54;72.96;98718.13;4783555;30;20066;-84
2023/03/02 06:48:01;;;;;;;0.85;0.85;;;;;;;-4.51;72.90;98712.53;4766767;30;20055;-86
2023/03/02 06:50:28;;;;;;;0.88;0.88;;;;;;;-4.41;72.66;98705.34;4780248;30;20123;-85
2023/03/02 06:52:55;;;;;;;0.60;0.60;;;;;;;-4.26;72.66;98700.34;4778039;30;20051;-85
2023/03/02 06:55:22;;;;;;;0.80;0.80;;;;;;;-4.18;71.78;98689.84;4773867;30;20056;-85
2023/03/02 06:57:49;;;;;;;1.00;1.00;;;;;;;-4.07;70.78;98690.56;4775638;30;20087;-86
2023/03/02 07:00:23;;;;;;;0.70;0.70;;;;;;;-3.97;70.60;98686.81;4768973;30;20689;-85
2023/03/02 07:02:54;;;;;;;0.93;0.93;;;;;;;-3.98;70.19;98671.13;4747130;30;20078;-85
2023/03/02 07:05:23;;;;;;;0.98;0.98;;;;;;;-3.58;70.17;98662.50;4785770;30;20051;-84
2023/03/02 07:07:50;;;;;;;0.70;0.70;;;;;;;-3.14;68.57;98671.94;4777767;30;20062;-84
2023/03/02 07:10:18;;;;;;;0.90;0.90;;;;;;;-3.41;67.51;98668.63;4780673;30;20053;-85
2023/03/02 07:12:45;;;;;;;0.70;0.70;;;;;;;-3.58;67.00;98680.97;4766350;30;20646;-83
2023/03/02 07:15:13;;;;;;;0.90;0.90;;;;;;;-3.67;66.75;98684.59;4763711;30;20059;-85
2023/03/02 07:17:42;;;;;;;0.80;0.80;;;;;;;-3.71;66.50;98675.34;4777432;29;20063;-85
2023/03/02 07:20:11;;;;;;;0.95;0.95;;;;;;;-3.59;65.96;98681.16;4775530;30;20074;-84
2023/03/02 07:22:39;;;;;;;0.95;0.95;;;;;;;-3.41;65.65;98673.09;4773963;30;20476;-84
2023/03/02 07:25:07;;;;;;;0.73;0.73;;;;;;;-3.17;65.21;98682.81;4757932;30;20051;-85
2023/03/02 07:27:34;;;;;;;0.70;0.70;;;;;;;-3.16;63.53;98674.75;4778395;30;20055;-85
2023/03/02 07:30:02;;;;;;;0.80;0.80;;;;;;;-3.16;63.25;98674.75;4775331;30;20067;-83
2023/03/02 07:32:29;;;;;;;1.00;1.00;;;;;;;-3.08;63.60;98672.09;4771810;30;20131;-85
2023/03/02 07:34:56;;;;;;;0.90;0.90;;;;;;;-3.25;62.48;98667.00;4777848;30;20058;-84
2023/03/02 07:37:24;;;;;;;0.80;0.80;;;;;;;-3.39;61.91;98668.44;4780554;30;20083;-85
2023/03/02 07:39:51;;;;;;;1.00;1.00;;;;;;;-3.39;62.12;98664.03;4777254;30;20058;-85
2023/03/02 07:42:18;;;;;;;0.90;0.90;;;;;;;-3.32;60.96;98661.53;4777673;29;20060;-85
2023/03/02 07:44:53;;;;;;;0.70;0.70;;;;;;;-3.46;60.44;98665.66;4764474;30;20059;-85
2023/03/02 07:47:21;;;;;;;0.90;0.90;;;;;;;-3.52;60.60;98661.88;4782728;30;20093;-85
2023/03/02 07:49:48;;;;;;;0.95;0.95;;;;;;;-3.34;60.60;98664.34;4771481;30;20512;-84
2023/03/02 07:52:15;;;;;;;0.70;0.70;;;;;;;-3.29;60.02;98679.69;4750914;30;20086;-86
2023/03/02 07:54:42;;;;;;;0.88;0.88;;;;;;;-3.50;59.94;98662.50;4767214;30;20522;-84
2023/03/02 07:57:09;;;;;;;1.10;1.10;;;;;;;-3.40;59.43;98686.09;4750943;30;20055;-84
2023/03/02 07:59:36;;;;;;;0.88;0.88;;;;;;;-3.35;59.27;98652.13;4750999;30;20128;-84
2023/03/02 08:02:03;;;;;;;1.00;1.00;;;;;;;-3.27;59.54;98693.53;4767147;30;20047;-83
2023/03/02 08:04:33;;;;;;;0.93;0.93;;;;;;;-3.16;59.62;98682.66;4766827;30;20055;-84
2023/03/02 08:07:00;;;;;;;0.65;0.65;;;;;;;-3.33;59.62;98686.28;4766667;30;20159;-83
2023/03/02 08:09:28;;;;;;;1.00;1.00;;;;;;;-3.35;59.46;98667.97;4781622;29;20051;-84
2023/03/02 08:11:56;;;;;;;0.88;0.88;;;;;;;-3.31;59.94;98679.03;4784352;30;20454;-83
2023/03/02 08:14:23;;;;;;;0.77;0.77;;;;;;;-3.27;59.92;98667.13;4784258;30;20055;-84
2023/03/02 08:16:51;;;;;;;0.90;0.90;;;;;;;-3.33;60.12;98657.25;4784548;30;20051;-84
2023/03/02 08:19:19;;;;;;;0.80;0.80;;;;;;;-3.15;59.24;98643.91;4753657;30;20054;-83
2023/03/02 08:21:46;;;;;;;1.10;1.10;;;;;;;-2.86;58.67;98662.69;4784439;30;20065;-84
2023/03/02 08:24:13;;;;;;;0.95;0.95;;;;;;;-3.11;58.14;98643.41;4768814;30;20063;-84
2023/03/02 08:26:40;;;;;;;0.80;0.80;;;;;;;-3.08;58.69;98642.25;4784573;30;20161;-84
2023/03/02 08:29:07;;;;;;;0.95;0.95;;;;;;;-3.19;59.07;98648.69;4784065;30;20051;-85
2023/03/02 08:31:34;;;;;;;1.00;1.00;;;;;;;-3.25;59.17;98635.31;4784169;30;20057;-83
2023/03/02 08:34:02;;;;;;;0.90;0.90;;;;;;;-3.28;59.13;98639.13;4782716;30;20878;-84
2023/03/02 08:36:29;;;;;;;0.93;0.93;;;;;;;-3.38;59.52;98638.44;4784745;30;20063;-81
2023/03/02 08:38:57;;;;;;;0.80;0.80;;;;;;;-3.23;59.47;98652.63;4785887;30;20051;-83
2023/03/02 08:41:24;;;;;;;0.90;0.90;;;;;;;-2.98;59.69;98652.63;4770407;30;20146;-85
2023/03/02 08:43:54;;;;;;;0.95;0.95;;;;;;;-2.94;59.45;98638.91;4769501;30;20066;-85
2023/03/02 08:46:21;;;;;;;0.90;0.90;;;;;;;-3.02;58.90;98640.75;4785356;30;20055;-85
2023/03/02 08:48:50;;;;;;;0.70;0.70;;;;;;;-3.02;58.90;98640.75;4768745;30;20055;-84
2023/03/02 08:51:20;;;;;;;0.85;0.85;;;;;;;-2.93;58.25;98635.31;4788038;30;20051;-84
2023/03/02 08:53:52;;;;;;;0.90;0.90;;;;;;;-2.89;58.03;98657.72;4771956;30;20542;-84
2023/03/02 08:56:29;;;;;;;0.90;0.90;;;;;;;-2.90;58.08;98647.34;4784454;30;20056;-84
2023/03/02 08:59:04;;;;;;;0.80;0.80;;;;;;;-3.14;58.02;98619.97;4768250;30;20138;-84
2023/03/02 09:01:33;;;;;;;0.75;0.75;;;;;;;-3.16;57.72;98661.56;4784287;30;20649;-84
2023/03/02 09:04:03;;;;;;;0.90;0.90;;;;;;;-3.12;58.13;98649.66;4768050;30;20099;-83
2023/03/02 09:06:32;;;;;;;1.00;1.00;;;;;;;-3.02;57.79;98646.84;4768643;30;20142;-83
2023/03/02 09:09:00;;;;;;;0.70;0.70;;;;;;;-3.16;57.37;98635.16;4784715;30;20094;-83
2023/03/02 09:11:27;;;;;;;1.00;1.00;;;;;;;-3.03;56.80;98654.94;4767969;30;20059;-83
2023/03/02 09:13:55;;;;;;;1.00;1.00;;;;;;;-2.92;56.87;98641.41;4768014;30;20057;-84
2023/03/02 09:16:26;;;;;;;1.00;1.00;;;;;;;-2.77;56.91;98650.28;4768195;30;20515;-84
2023/03/02 09:18:53;;;;;;;1.00;1.00;;;;;;;-2.53;56.63;98645.94;4777801;30;20462;-84
2023/03/02 09:21:20;;;;;;;0.93;0.93;;;;;;;-2.41;55.78;98655.97;4766436;30;20094;-83
2023/03/02 09:23:48;;;;;;;0.90;0.90;;;;;;;-2.64;55.54;98657.69;4783130;30;20507;-86
2023/03/02 09:26:15;;;;;;;1.10;1.10;;;;;;;-2.75;56.08;98656.22;4774292;30;20055;-85
2023/03/02 09:28:42;;;;;;;0.90;0.90;;;;;;;-2.62;56.08;98663.63;4787977;30;20473;-84
2023/03/02 09:31:10;;;;;;;1.00;1.00;;;;;;;-2.54;56.39;98649.56;4779758;30;20055;-84
2023/03/02 09:33:37;;;;;;;1.00;1.00;;;;;;;-2.71;56.08;98638.22;4751619;30;20063;-83
2023/03/02 09:36:10;;;;;;;0.85;0.85;;;;;;;-2.76;55.98;98649.31;4763073;30;20416;-84
2023/03/02 09:38:37;;;;;;;0.98;0.98;;;;;;;-2.84;56.41;98636.09;4777275;30;20492;-85
2023/03/02 09:41:26;;;;;;;0.90;0.90;;;;;;;-2.69;56.43;98633.59;4786811;29;20075;-83
2023/03/02 09:44:18;;;;;;;0.90;0.90;;;;;;;-2.68;56.50;98643.19;4757230;30;20143;-83
2023/03/02 09:46:55;;;;;;;0.82;0.82;;;;;;;-2.76;55.94;98651.94;4768236;30;20059;-83
2023/03/02 09:49:54;;;;;;;0.90;0.90;;;;;;;-2.86;56.61;98646.00;4751340;30;20063;-84
2023/03/02 09:52:29;;;;;;;1.08;1.08;;;;;;;-2.78;56.86;98642.53;4771947;30;20047;-83
2023/03/02 09:55:21;;;;;;;0.85;0.85;;;;;;;-2.87;56.33;98628.50;4781507;30;20047;-83
2023/03/02 09:57:49;;;;;;;1.00;1.00;;;;;;;-2.54;56.28;98617.88;4769335;30;20114;-83
2023/03/02 10:00:26;;;;;;;0.95;0.95;;;;;;;-2.20;55.51;98621.06;4764557;29;20132;-83
2023/03/02 10:02:57;;;;;;;0.98;0.98;;;;;;;-2.46;55.49;98620.47;4758646;30;20484;-83
2023/03/02 10:05:46;;;;;;;0.90;0.90;;;;;;;-2.83;56.03;98625.38;4771711;30;20617;-84
2023/03/02 10:08:15;;;;;;;1.05;1.05;;;;;;;-3.03;56.38;98618.00;4755047;30;20098;-85
2023/03/02 10:10:45;;;;;;;0.90;0.90;;;;;;;-3.05;56.57;98615.50;4781671;30;20051;-82
2023/03/02 10:13:39;;;;;;;0.90;0.90;;;;;;;-3.02;56.54;98595.88;4772533;30;20071;-83
2023/03/02 10:16:11;;;;;;;0.90;0.90;;;;;;;-2.93;57.13;98593.03;4784684;30;20165;-86
2023/03/02 10:18:46;;;;;;;0.70;0.70;;;;;;;-2.64;56.69;98597.75;4768250;30;20553;-86
2023/03/02 10:21:27;;;;;;;0.82;0.82;;;;;;;-2.53;56.50;98593.09;4766263;30;20063;-86
2023/03/02 10:24:02;;;;;;;1.00;1.00;;;;;;;-2.32;55.86;98584.59;4737386;30;20055;-87
2023/03/02 10:26:39;;;;;;;0.95;0.95;;;;;;;-2.35;55.83;98580.47;4780634;30;20055;-86
2023/03/02 10:29:22;;;;;;;1.15;1.15;;;;;;;-2.77;56.45;98589.53;4766260;30;20063;-86
2023/03/02 10:32:18;;;;;;;0.90;0.90;;;;;;;-2.90;56.80;98576.84;4782701;30;20066;-87
2023/03/02 10:34:49;;;;;;;1.08;1.08;;;;;;;-2.36;55.88;98565.59;4726387;30;20123;-87
2023/03/02 10:37:18;;;;;;;1.07;1.07;;;;;;;-2.47;55.58;98555.41;4387538;30;10000308;-86
2023/03/02 10:39:45;;;;;;;0.88;0.88;;;;;;;-2.45;55.95;98566.66;4710933;30;20061;-86
2023/03/02 10:42:39;;;;;;;0.88;0.88;;;;;;;-2.47;56.18;98558.88;4719653;30;20448;-85
2023/03/02 10:45:28;;;;;;;1.10;1.10;;;;;;;-2.17;55.95;98545.03;4719945;30;20065;-84
2023/03/02 10:48:14;;;;;;;1.10;1.10;;;;;;;-2.11;55.20;98560.19;4726966;30;20149;-83
2023/03/02 10:50:41;;;;;;;;;;;;;;;-2.47;56.06;98558.06;4727730;30;20109;-84
2023/03/02 10:53:18;;;;;;;1.02;1.02;;;;;;;-2.64;56.20;98550.19;4728205;30;20076;-80
2023/03/02 10:55:47;;;;;;;0.90;0.90;;;;;;;-2.76;56.57;98546.28;4721738;30;20210;-82
2023/03/02 10:58:31;;;;;;;0.70;0.70;;;;;;;-2.87;56.84;98560.66;4724805;30;20147;-83
2023/03/02 11:01:04;;;;;;;0.80;0.80;;;;;;;-3.05;57.50;98549.50;4718651;30;20061;-83
2023/03/02 11:03:32;;;;;;;1.10;1.10;;;;;;;-3.15;57.58;98541.75;4719398;30;20057;-83
2023/03/02 11:06:17;;;;;;;1.00;1.00;;;;;;;-3.05;57.91;98552.13;4726857;30;20057;-83
2023/03/02 11:08:44;;;;;;;0.90;0.90;;;;;;;-3.05;57.83;98546.88;4730433;30;20053;-83
2023/03/02 11:11:22;;;;;;;0.98;0.98;;;;;;;-3.01;58.39;98539.41;4748504;30;20052;-83
2023/03/02 11:13:50;;;;;;;0.70;0.70;;;;;;;-2.97;58.11;98527.53;4785991;30;20085;-82
2023/03/02 11:16:17;;;;;;;0.88;0.88;;;;;;;-2.99;58.14;98526.88;4785121;30;20066;-83
2023/03/02 11:18:57;;;;;;;1.00;1.00;;;;;;;-3.08;58.42;98521.63;4780408;30;20078;-83
2023/03/02 11:21:27;;;;;;;0.70;0.70;;;;;;;-3.07;58.42;98522.44;4767880;30;20063;-83
2023/03/02 11:23:57;;;;;;;0.80;0.80;;;;;;;-3.04;58.56;98514.19;4767887;30;20064;-83
2023/03/02 11:26:27;;;;;;;0.80;0.80;;;;;;;-3.08;58.77;98511.06;4768649;30;20062;-83
2023/03/02 11:29:15;;;;;;;0.90;0.90;;;;;;;-3.09;58.65;98535.81;4783117;30;20151;-83
2023/03/02 11:31:55;;;;;;;0.90;0.90;;;;;;;-3.20;59.15;98509.75;4782940;30;20426;-82
2023/03/02 11:34:28;;;;;;;0.90;0.90;;;;;;;-3.16;59.37;98503.16;4784714;30;20453;-83
2023/03/02 11:37:01;;;;;;;0.80;0.80;;;;;;;-3.16;59.31;98483.88;4782446;30;20066;-84
2023/03/02 11:39:40;;;;;;;0.90;0.90;;;;;;;-3.22;59.20;98482.72;4762338;30;20048;-83
2023/03/02 11:42:28;;;;;;;0.88;0.88;;;;;;;-3.27;60.06;98483.25;4763841;30;20051;-83
2023/03/02 11:44:55;;;;;;;0.93;0.93;;;;;;;-3.25;59.96;98488.34;4759545;30;20546;-83
2023/03/02 11:47:22;;;;;;;0.73;0.73;;;;;;;-3.30;60.10;98470.38;4761739;30;20147;-84
2023/03/02 11:49:55;;;;;;;0.98;0.98;;;;;;;-3.42;61.02;98476.16;4753519;30;20055;-82